createdAt,value
2022-08-31T00:00:12.468Z,16.40
2022-08-31T00:02:23.820Z,16.40
2022-08-31T00:04:03.456Z,16.40
2022-08-31T00:05:38.502Z,16.40
2022-08-31T00:07:10.966Z,16.40
2022-08-31T00:08:43.421Z,16.30
2022-08-31T00:10:18.672Z,16.30
2022-08-31T00:11:52.342Z,16.30
2022-08-31T00:13:27.387Z,16.20
2022-08-31T00:14:59.655Z,16.30
2022-08-31T00:16:35.733Z,16.30
2022-08-31T00:18:08.769Z,16.20
2022-08-31T00:19:41.256Z,16.20
2022-08-31T00:21:13.430Z,16.20
2022-08-31T00:22:45.786Z,16.20
2022-08-31T00:24:18.206Z,16.10
2022-08-31T00:25:50.952Z,16.10
2022-08-31T00:27:23.268Z,16.10
2022-08-31T00:28:55.562Z,16.10
2022-08-31T00:30:28.006Z,16.10
2022-08-31T00:32:00.542Z,16.10
2022-08-31T00:33:32.812Z,16.00
2022-08-31T00:35:07.149Z,16.00
2022-08-31T00:36:39.471Z,16.00
2022-08-31T00:38:13.658Z,16.00
2022-08-31T00:39:47.428Z,16.00
2022-08-31T00:41:25.383Z,16.00
2022-08-31T00:43:00.725Z,16.00
2022-08-31T00:44:33.841Z,16.00
2022-08-31T00:46:09.991Z,15.90
2022-08-31T00:47:42.366Z,16.00
2022-08-31T00:49:26.942Z,16.00
2022-08-31T00:51:00.706Z,16.00
2022-08-31T00:52:39.720Z,15.90
2022-08-31T00:54:17.009Z,15.90
2022-08-31T00:55:49.295Z,15.90
2022-08-31T00:57:34.147Z,15.90
2022-08-31T00:59:07.610Z,15.90
2022-08-31T01:00:43.170Z,15.80
2022-08-31T01:02:17.731Z,15.80
2022-08-31T01:03:50.166Z,15.80
2022-08-31T01:05:23.291Z,15.90
2022-08-31T01:06:56.177Z,15.80
2022-08-31T01:08:30.850Z,15.80
2022-08-31T01:10:05.109Z,15.90
2022-08-31T01:11:40.075Z,15.80
2022-08-31T01:13:15.390Z,15.90
2022-08-31T01:14:48.398Z,15.90
2022-08-31T01:16:32.397Z,15.80
2022-08-31T01:18:06.797Z,15.80
2022-08-31T01:20:04.624Z,15.80
2022-08-31T01:22:10.225Z,15.80
2022-08-31T01:23:45.346Z,15.80
2022-08-31T01:25:19.857Z,15.80
2022-08-31T01:26:55.668Z,15.80
2022-08-31T01:28:28.473Z,15.80
2022-08-31T01:30:10.388Z,15.80
2022-08-31T01:31:46.762Z,15.70
2022-08-31T01:33:19.415Z,15.70
2022-08-31T01:34:51.787Z,15.80
2022-08-31T01:36:25.869Z,15.70
2022-08-31T01:37:58.815Z,15.70
2022-08-31T01:39:33.207Z,15.70
2022-08-31T01:41:06.685Z,15.80
2022-08-31T01:42:39.156Z,15.70
2022-08-31T01:44:19.263Z,15.70
2022-08-31T01:45:52.224Z,15.70
2022-08-31T01:47:24.661Z,15.70
2022-08-31T01:48:57.215Z,15.70
2022-08-31T01:50:29.425Z,15.70
2022-08-31T01:52:02.315Z,15.80
2022-08-31T01:53:34.777Z,15.70
2022-08-31T01:55:08.537Z,15.70
2022-08-31T01:56:45.781Z,15.70
2022-08-31T01:58:18.362Z,15.70
2022-08-31T01:59:50.558Z,15.70
2022-08-31T02:01:33.847Z,15.70
2022-08-31T02:03:08.078Z,15.70
2022-08-31T02:04:40.594Z,15.60
2022-08-31T02:06:14.115Z,15.60
2022-08-31T02:07:47.169Z,15.60
2022-08-31T02:09:20.737Z,15.60
2022-08-31T02:10:53.246Z,15.60
2022-08-31T02:12:25.738Z,15.50
2022-08-31T02:13:58.369Z,15.60
2022-08-31T02:15:31.984Z,15.60
2022-08-31T02:17:04.896Z,15.50
2022-08-31T02:18:37.558Z,15.50
2022-08-31T02:20:13.080Z,15.60
2022-08-31T02:21:45.352Z,15.60
2022-08-31T02:23:18.009Z,15.60
2022-08-31T02:24:50.362Z,15.60
2022-08-31T02:26:23.158Z,15.60
2022-08-31T02:27:55.377Z,15.60
2022-08-31T02:29:27.960Z,15.60
2022-08-31T02:31:00.177Z,15.60
2022-08-31T02:32:32.727Z,15.50
2022-08-31T02:34:05.252Z,15.50
2022-08-31T02:35:41.685Z,15.50
2022-08-31T02:37:14.831Z,15.50
2022-08-31T02:38:49.285Z,15.50
2022-08-31T02:40:21.947Z,15.50
2022-08-31T02:41:55.406Z,15.60
2022-08-31T02:43:27.911Z,15.60
2022-08-31T02:45:00.558Z,15.60
2022-08-31T02:46:33.812Z,15.60
2022-08-31T02:48:09.325Z,15.60
2022-08-31T02:49:41.739Z,15.60
2022-08-31T02:51:14.282Z,15.60
2022-08-31T02:52:47.406Z,15.60
2022-08-31T02:54:20.208Z,15.60
2022-08-31T02:55:52.515Z,15.60
2022-08-31T02:57:24.873Z,15.60
2022-08-31T02:58:57.264Z,15.60
2022-08-31T03:00:30.313Z,15.60
2022-08-31T03:02:02.671Z,15.50
2022-08-31T03:03:35.799Z,15.50
2022-08-31T03:05:10.302Z,15.50
2022-08-31T03:06:43.271Z,15.50
2022-08-31T03:08:16.162Z,15.50
2022-08-31T03:09:48.457Z,15.40
2022-08-31T03:11:20.709Z,15.50
2022-08-31T03:12:54.202Z,15.40
2022-08-31T03:14:27.034Z,15.50
2022-08-31T03:16:00.354Z,15.50
2022-08-31T03:17:33.693Z,15.40
2022-08-31T03:19:09.004Z,15.50
2022-08-31T03:20:41.418Z,15.40
2022-08-31T03:22:14.773Z,15.40
2022-08-31T03:23:47.041Z,15.40
2022-08-31T03:25:20.387Z,15.40
2022-08-31T03:26:52.741Z,15.40
2022-08-31T03:28:24.958Z,15.40
2022-08-31T03:29:57.439Z,15.40
2022-08-31T03:31:32.530Z,15.40
2022-08-31T03:33:04.725Z,15.40
2022-08-31T03:34:37.235Z,15.30
2022-08-31T03:36:09.574Z,15.30
2022-08-31T03:37:42.535Z,15.30
2022-08-31T03:39:14.698Z,15.30
2022-08-31T03:40:47.885Z,15.30
2022-08-31T03:42:20.547Z,15.30
2022-08-31T03:43:53.517Z,15.20
2022-08-31T03:45:27.815Z,15.20
2022-08-31T03:47:00.214Z,15.30
2022-08-31T03:48:32.599Z,15.20
2022-08-31T03:50:07.651Z,15.20
2022-08-31T03:51:39.895Z,15.20
2022-08-31T03:53:12.665Z,15.20
2022-08-31T03:54:44.968Z,15.20
2022-08-31T03:56:17.508Z,15.20
2022-08-31T03:57:49.786Z,15.20
2022-08-31T03:59:22.080Z,15.20
2022-08-31T04:00:54.572Z,15.20
2022-08-31T04:02:27.060Z,15.20
2022-08-31T04:03:59.275Z,15.20
2022-08-31T04:05:36.777Z,15.20
2022-08-31T04:07:08.954Z,15.20
2022-08-31T04:08:41.863Z,15.20
2022-08-31T04:10:15.526Z,15.20
2022-08-31T04:11:47.928Z,15.20
2022-08-31T04:13:20.453Z,15.20
2022-08-31T04:14:53.403Z,15.20
2022-08-31T04:16:26.825Z,15.20
2022-08-31T04:17:59.147Z,15.20
2022-08-31T04:19:31.668Z,15.20
2022-08-31T04:21:05.348Z,15.20
2022-08-31T04:22:37.963Z,15.30
2022-08-31T04:24:11.944Z,15.30
2022-08-31T04:25:44.316Z,15.30
2022-08-31T04:27:17.028Z,15.20
2022-08-31T04:28:50.271Z,15.20
2022-08-31T04:30:23.814Z,15.20
2022-08-31T04:31:56.926Z,15.20
2022-08-31T04:33:29.485Z,15.20
2022-08-31T04:35:02.114Z,15.20
2022-08-31T04:36:34.987Z,15.20
2022-08-31T04:38:07.573Z,15.20
2022-08-31T04:39:50.859Z,15.10
2022-08-31T04:41:27.167Z,15.10
2022-08-31T04:43:02.506Z,15.20
2022-08-31T04:44:35.220Z,15.10
2022-08-31T04:46:08.817Z,15.10
2022-08-31T04:47:42.765Z,15.20
2022-08-31T04:49:15.327Z,15.10
2022-08-31T04:50:50.837Z,15.20
2022-08-31T04:52:28.423Z,15.20
2022-08-31T04:54:01.447Z,15.20
2022-08-31T04:55:33.931Z,15.30
2022-08-31T04:57:06.215Z,15.30
2022-08-31T04:58:38.601Z,15.30
2022-08-31T05:00:11.484Z,15.30
2022-08-31T05:01:46.541Z,15.40
2022-08-31T05:03:20.589Z,15.40
2022-08-31T05:04:53.412Z,15.40
2022-08-31T05:06:32.895Z,15.50
2022-08-31T05:08:06.151Z,15.50
2022-08-31T05:09:38.566Z,15.50
2022-08-31T05:11:21.745Z,15.50
2022-08-31T05:12:56.687Z,15.50
2022-08-31T05:14:28.875Z,15.60
2022-08-31T05:16:01.351Z,15.60
2022-08-31T05:17:33.908Z,15.60
2022-08-31T05:19:07.301Z,15.60
2022-08-31T05:20:41.138Z,15.60
2022-08-31T05:22:14.593Z,15.60
2022-08-31T05:23:48.772Z,15.70
2022-08-31T05:25:21.118Z,15.70
2022-08-31T05:26:56.125Z,15.70
2022-08-31T05:28:29.205Z,15.70
2022-08-31T05:30:02.461Z,15.70
2022-08-31T05:31:39.300Z,15.80
2022-08-31T05:33:11.691Z,15.80
2022-08-31T05:34:43.916Z,15.80
2022-08-31T05:36:17.281Z,15.80
2022-08-31T05:37:51.324Z,15.80
2022-08-31T05:39:24.597Z,15.80
2022-08-31T05:41:00.513Z,15.80
2022-08-31T05:42:33.200Z,15.90
2022-08-31T05:44:06.653Z,15.90
2022-08-31T05:45:43.036Z,15.90
2022-08-31T05:47:15.284Z,15.90
2022-08-31T05:48:49.567Z,15.90
2022-08-31T05:50:22.321Z,16.00
2022-08-31T05:51:54.612Z,15.90
2022-08-31T05:53:27.178Z,16.00
2022-08-31T05:54:59.731Z,16.00
2022-08-31T05:56:32.324Z,16.00
2022-08-31T05:58:04.757Z,16.10
2022-08-31T05:59:40.049Z,16.20
2022-08-31T06:01:30.498Z,16.10
2022-08-31T06:03:03.064Z,16.20
2022-08-31T06:04:35.380Z,16.20
2022-08-31T06:06:09.726Z,16.20
2022-08-31T06:07:42.391Z,16.30
2022-08-31T06:09:14.614Z,16.30
2022-08-31T06:10:49.096Z,16.40
2022-08-31T06:12:25.435Z,16.40
2022-08-31T06:14:00.117Z,16.50
2022-08-31T06:15:32.316Z,16.50
2022-08-31T06:17:07.931Z,16.60
2022-08-31T06:18:41.411Z,16.60
2022-08-31T06:20:17.748Z,16.50
2022-08-31T06:21:51.366Z,16.50
2022-08-31T06:23:25.052Z,16.50
2022-08-31T06:24:57.296Z,16.50
2022-08-31T06:26:33.504Z,16.40
2022-08-31T06:28:07.352Z,16.40
2022-08-31T06:29:39.552Z,16.40
2022-08-31T06:31:24.175Z,16.40
2022-08-31T06:32:58.636Z,16.50
2022-08-31T06:34:31.191Z,16.40
2022-08-31T06:36:03.967Z,16.40
2022-08-31T06:37:36.444Z,16.40
2022-08-31T06:39:08.912Z,16.40
2022-08-31T06:40:41.134Z,16.40
2022-08-31T06:42:13.435Z,16.40
2022-08-31T06:43:47.706Z,16.40
2022-08-31T06:45:20.147Z,16.40
2022-08-31T06:46:53.450Z,16.50
2022-08-31T06:48:25.631Z,16.60
2022-08-31T06:49:57.920Z,16.60
2022-08-31T06:51:36.542Z,16.70
2022-08-31T06:53:09.728Z,16.70
2022-08-31T06:54:42.204Z,16.80
2022-08-31T06:56:20.970Z,16.80
2022-08-31T06:57:54.004Z,16.90
2022-08-31T06:59:29.315Z,17.00
2022-08-31T07:01:15.858Z,17.10
2022-08-31T07:02:57.644Z,17.20
2022-08-31T07:04:38.436Z,17.30
2022-08-31T07:06:24.094Z,17.40
2022-08-31T07:07:56.323Z,17.60
2022-08-31T07:09:29.460Z,17.60
2022-08-31T07:11:03.205Z,17.70
2022-08-31T07:12:35.570Z,17.80
2022-08-31T07:14:12.416Z,17.80
2022-08-31T07:15:44.915Z,18.00
2022-08-31T07:17:17.160Z,18.00
2022-08-31T07:18:52.518Z,18.10
2022-08-31T07:20:24.844Z,18.10
2022-08-31T07:22:01.555Z,18.50
2022-08-31T07:23:34.144Z,18.60
2022-08-31T07:25:07.999Z,18.80
2022-08-31T07:26:50.553Z,18.80
2022-08-31T07:28:25.094Z,18.90
2022-08-31T07:30:00.316Z,19.00
2022-08-31T07:31:44.800Z,19.00
2022-08-31T07:33:18.467Z,19.10
2022-08-31T07:34:58.635Z,19.10
2022-08-31T07:36:33.040Z,19.00
2022-08-31T07:38:24.175Z,19.20
2022-08-31T07:40:15.914Z,19.40
2022-08-31T07:42:00.519Z,19.30
2022-08-31T07:43:32.827Z,19.30
2022-08-31T07:45:22.962Z,19.40
2022-08-31T07:46:56.000Z,19.40
2022-08-31T07:48:28.240Z,19.40
2022-08-31T07:50:01.204Z,19.60
2022-08-31T07:51:33.726Z,19.50
2022-08-31T07:53:08.602Z,19.50
2022-08-31T07:54:40.996Z,19.70
2022-08-31T07:56:13.675Z,19.50
2022-08-31T07:57:46.422Z,19.60
2022-08-31T07:59:23.139Z,19.90
2022-08-31T08:00:55.569Z,19.90
2022-08-31T08:02:29.113Z,20.10
2022-08-31T08:04:02.408Z,20.20
2022-08-31T08:05:38.760Z,20.10
2022-08-31T08:07:12.820Z,20.40
2022-08-31T08:09:01.593Z,20.40
2022-08-31T08:10:43.694Z,20.20
2022-08-31T08:12:22.508Z,20.40
2022-08-31T08:13:55.053Z,20.30
2022-08-31T08:15:27.903Z,20.60
2022-08-31T08:17:01.894Z,20.70
2022-08-31T08:18:34.314Z,20.80
2022-08-31T08:20:13.353Z,20.90
2022-08-31T08:21:46.282Z,20.90
2022-08-31T08:23:28.231Z,21.00
2022-08-31T08:25:04.761Z,21.40
2022-08-31T08:26:44.354Z,21.80
2022-08-31T08:30:13.873Z,21.60
2022-08-31T08:31:52.301Z,21.00
2022-08-31T08:33:25.339Z,20.90
2022-08-31T08:34:58.294Z,21.10
2022-08-31T08:36:36.533Z,21.60
2022-08-31T08:38:09.079Z,21.60
2022-08-31T08:39:43.182Z,21.60
2022-08-31T08:41:25.704Z,21.50
2022-08-31T08:43:00.010Z,21.60
2022-08-31T08:44:33.230Z,21.50
2022-08-31T08:46:31.190Z,21.20
2022-08-31T08:48:02.063Z,21.20
2022-08-31T08:49:57.072Z,21.20
2022-08-31T08:51:38.873Z,22.00
2022-08-31T08:53:15.260Z,22.20
2022-08-31T08:54:50.107Z,22.70
2022-08-31T08:56:32.737Z,22.80
2022-08-31T08:58:10.431Z,22.80
2022-08-31T08:59:48.585Z,22.80
2022-08-31T09:01:29.650Z,22.50
2022-08-31T09:03:21.321Z,22.30
2022-08-31T09:05:15.421Z,22.40
2022-08-31T09:07:11.783Z,22.00
2022-08-31T09:09:18.221Z,22.20
2022-08-31T09:11:23.870Z,22.60
2022-08-31T09:13:23.056Z,22.80
2022-08-31T09:15:36.195Z,22.90
2022-08-31T09:17:49.715Z,23.30
2022-08-31T09:19:22.076Z,23.00
2022-08-31T09:21:25.565Z,22.90
2022-08-31T09:22:58.674Z,23.10
2022-08-31T09:24:30.887Z,23.10
2022-08-31T09:26:08.246Z,23.00
2022-08-31T09:27:48.037Z,23.00
2022-08-31T09:29:28.925Z,22.60
2022-08-31T09:31:01.988Z,22.20
2022-08-31T09:32:36.503Z,22.00
2022-08-31T09:34:28.517Z,22.30
2022-08-31T09:36:22.475Z,22.50
2022-08-31T09:38:03.903Z,22.10
2022-08-31T09:39:37.581Z,22.30
2022-08-31T09:41:32.828Z,22.50
2022-08-31T09:43:22.320Z,22.40
2022-08-31T09:44:55.457Z,22.40
2022-08-31T09:46:31.067Z,22.30
2022-08-31T09:48:07.654Z,22.10
2022-08-31T09:49:39.942Z,22.50
2022-08-31T09:51:20.667Z,22.20
2022-08-31T09:53:41.159Z,22.30
2022-08-31T09:55:28.337Z,22.30
2022-08-31T09:57:05.871Z,22.70
2022-08-31T09:58:38.752Z,22.70
2022-08-31T10:00:16.791Z,23.10
2022-08-31T10:01:49.102Z,23.10
2022-08-31T10:03:30.486Z,23.10
2022-08-31T10:05:17.639Z,23.10
2022-08-31T10:07:25.083Z,22.90
2022-08-31T10:09:03.553Z,22.50
2022-08-31T10:10:42.516Z,22.40
2022-08-31T10:12:28.632Z,22.60
2022-08-31T10:14:17.023Z,23.10
2022-08-31T10:16:17.146Z,23.30
2022-08-31T10:18:45.028Z,23.30
2022-08-31T10:20:30.345Z,23.40
2022-08-31T10:22:07.735Z,23.30
2022-08-31T10:23:56.428Z,23.60
2022-08-31T10:25:43.060Z,23.80
2022-08-31T10:27:35.343Z,23.70
2022-08-31T10:29:20.908Z,23.10
2022-08-31T10:31:00.729Z,23.00
2022-08-31T10:32:57.475Z,22.90
2022-08-31T10:34:59.704Z,23.00
2022-08-31T10:36:39.314Z,22.70
2022-08-31T10:38:33.400Z,22.30
2022-08-31T10:40:42.151Z,22.30
2022-08-31T10:42:37.488Z,22.20
2022-08-31T10:44:23.893Z,22.00
2022-08-31T10:45:56.311Z,21.90
2022-08-31T10:47:34.528Z,21.80
2022-08-31T10:49:07.376Z,21.80
2022-08-31T10:51:32.840Z,22.10
2022-08-31T10:53:22.793Z,22.50
2022-08-31T10:55:23.496Z,22.60
2022-08-31T10:57:46.576Z,22.70
2022-08-31T10:59:37.844Z,22.60
2022-08-31T11:01:28.512Z,22.90
2022-08-31T11:03:57.382Z,23.10
2022-08-31T11:05:53.621Z,23.40
2022-08-31T11:07:28.809Z,23.10
2022-08-31T11:09:15.336Z,23.00
2022-08-31T11:10:51.954Z,22.60
2022-08-31T11:12:42.144Z,22.30
2022-08-31T11:15:13.048Z,22.00
2022-08-31T11:17:18.910Z,21.90
2022-08-31T11:19:38.017Z,22.20
2022-08-31T11:21:36.414Z,22.10
2022-08-31T11:23:43.802Z,22.30
2022-08-31T11:25:47.533Z,22.40
2022-08-31T11:27:50.972Z,22.20
2022-08-31T11:29:43.238Z,22.70
2022-08-31T11:31:25.580Z,22.90
2022-08-31T11:33:05.831Z,23.00
2022-08-31T11:34:53.604Z,23.10
2022-08-31T11:37:01.055Z,23.10
2022-08-31T11:39:13.464Z,22.60
2022-08-31T11:41:01.244Z,22.30
2022-08-31T11:42:42.124Z,22.10
2022-08-31T11:44:34.212Z,21.80
2022-08-31T11:46:26.392Z,21.60
2022-08-31T11:47:59.490Z,21.50
2022-08-31T11:49:46.940Z,21.50
2022-08-31T11:51:41.657Z,21.30
2022-08-31T11:53:44.352Z,21.30
2022-08-31T11:55:29.139Z,21.40
2022-08-31T11:57:03.311Z,21.40
2022-08-31T11:58:41.746Z,21.40
2022-08-31T12:00:20.950Z,21.40
2022-08-31T12:01:56.603Z,21.50
2022-08-31T12:04:03.616Z,21.60
2022-08-31T12:05:55.915Z,21.60
2022-08-31T12:07:48.295Z,21.70
2022-08-31T12:09:32.743Z,21.50
2022-08-31T12:11:23.883Z,21.60
2022-08-31T12:13:19.626Z,21.60
2022-08-31T12:15:27.770Z,21.70
2022-08-31T12:17:35.065Z,21.70
2022-08-31T12:19:51.226Z,21.90
2022-08-31T12:22:18.960Z,22.20
2022-08-31T12:24:49.068Z,22.40
2022-08-31T12:27:01.751Z,22.40
2022-08-31T12:29:24.799Z,22.60
2022-08-31T12:31:06.134Z,22.50
2022-08-31T12:32:48.168Z,22.50
2022-08-31T12:34:24.669Z,22.80
2022-08-31T12:36:28.013Z,22.80
2022-08-31T12:38:07.453Z,22.90
2022-08-31T12:39:39.615Z,23.00
2022-08-31T12:41:14.468Z,23.00
2022-08-31T12:43:05.152Z,22.80
2022-08-31T12:47:06.079Z,22.90
2022-08-31T12:49:36.559Z,23.30
2022-08-31T12:51:14.875Z,23.30
2022-08-31T12:53:33.814Z,23.40
2022-08-31T12:55:28.151Z,23.50
2022-08-31T12:57:40.598Z,23.40
2022-08-31T13:00:00.463Z,23.40
2022-08-31T13:01:43.950Z,23.70
2022-08-31T13:03:25.883Z,23.50
2022-08-31T13:04:58.092Z,24.00
2022-08-31T13:06:34.487Z,24.10
2022-08-31T13:08:26.671Z,24.40
2022-08-31T13:10:22.351Z,24.40
2022-08-31T13:12:00.691Z,24.50
2022-08-31T13:13:32.967Z,24.50
2022-08-31T13:15:23.041Z,24.80
2022-08-31T13:17:15.304Z,24.70
2022-08-31T13:18:49.831Z,24.70
2022-08-31T13:20:43.346Z,24.60
2022-08-31T13:22:48.035Z,24.50
2022-08-31T13:24:28.999Z,24.30
2022-08-31T13:26:19.945Z,24.10
2022-08-31T13:27:52.953Z,23.60
2022-08-31T13:29:25.473Z,23.60
2022-08-31T13:31:09.259Z,23.50
2022-08-31T13:32:45.520Z,23.50
2022-08-31T13:34:20.536Z,23.20
2022-08-31T13:36:03.107Z,23.10
2022-08-31T13:37:45.172Z,23.00
2022-08-31T13:39:26.747Z,23.00
2022-08-31T13:40:59.183Z,22.80
2022-08-31T13:42:42.926Z,22.70
2022-08-31T13:44:15.152Z,22.60
2022-08-31T13:45:58.922Z,22.50
2022-08-31T13:47:45.159Z,22.60
2022-08-31T13:49:35.972Z,22.50
2022-08-31T13:51:20.588Z,22.70
2022-08-31T13:53:25.379Z,22.90
2022-08-31T13:55:12.286Z,23.00
2022-08-31T13:57:01.235Z,23.00
2022-08-31T13:58:33.427Z,22.80
2022-08-31T14:00:43.271Z,22.70
2022-08-31T14:02:16.164Z,22.50
2022-08-31T14:03:59.142Z,22.40
2022-08-31T14:05:40.098Z,22.10
2022-08-31T14:07:47.008Z,22.00
2022-08-31T14:09:19.993Z,22.10
2022-08-31T14:10:52.420Z,22.00
2022-08-31T14:12:37.039Z,22.00
2022-08-31T14:14:12.827Z,22.10
2022-08-31T14:15:56.450Z,22.10
2022-08-31T14:17:29.393Z,22.20
2022-08-31T14:19:01.865Z,22.10
2022-08-31T14:20:44.145Z,22.10
2022-08-31T14:22:35.503Z,22.20
2022-08-31T14:24:12.323Z,22.00
2022-08-31T14:25:46.637Z,22.10
2022-08-31T14:27:19.107Z,22.10
2022-08-31T14:28:55.628Z,22.00
2022-08-31T14:30:27.933Z,21.90
2022-08-31T14:32:00.415Z,21.90
2022-08-31T14:33:32.571Z,21.90
2022-08-31T14:35:11.901Z,21.90
2022-08-31T14:36:51.190Z,21.90
2022-08-31T14:38:25.123Z,21.90
2022-08-31T14:40:05.621Z,21.80
2022-08-31T14:41:40.312Z,21.90
2022-08-31T14:43:17.660Z,21.70
2022-08-31T14:45:00.331Z,21.90
2022-08-31T14:46:34.435Z,21.80
2022-08-31T14:48:11.052Z,21.80
2022-08-31T14:49:45.504Z,21.90
2022-08-31T14:51:17.976Z,22.00
2022-08-31T14:52:55.509Z,21.90
2022-08-31T14:54:32.033Z,21.90
2022-08-31T14:56:19.078Z,22.00
2022-08-31T14:58:05.117Z,21.80
2022-08-31T14:59:42.079Z,21.80
2022-08-31T15:01:15.074Z,21.70
2022-08-31T15:02:53.213Z,21.60
2022-08-31T15:04:27.860Z,21.50
2022-08-31T15:06:03.369Z,21.40
2022-08-31T15:07:39.225Z,21.30
2022-08-31T15:09:12.476Z,21.40
2022-08-31T15:10:46.349Z,21.30
2022-08-31T15:12:19.152Z,21.30
2022-08-31T15:13:51.510Z,21.20
2022-08-31T15:15:23.798Z,21.30
2022-08-31T15:17:01.040Z,21.30
2022-08-31T15:18:36.549Z,21.30
2022-08-31T15:20:10.333Z,21.30
2022-08-31T15:22:03.084Z,21.20
2022-08-31T15:23:41.930Z,21.30
2022-08-31T15:25:15.180Z,21.10
2022-08-31T15:26:48.236Z,21.10
2022-08-31T15:28:21.597Z,21.10
2022-08-31T15:30:04.473Z,21.10
2022-08-31T15:31:36.782Z,20.90
2022-08-31T15:33:10.068Z,20.90
2022-08-31T15:34:45.975Z,20.80
2022-08-31T15:36:23.883Z,20.70
2022-08-31T15:38:01.175Z,20.60
2022-08-31T15:39:43.398Z,20.60
2022-08-31T15:41:16.057Z,20.60
2022-08-31T15:42:50.230Z,20.50
2022-08-31T15:44:22.477Z,20.40
2022-08-31T15:45:54.691Z,20.50
2022-08-31T15:47:54.058Z,20.40
2022-08-31T15:49:26.532Z,20.40
2022-08-31T15:51:01.316Z,20.40
2022-08-31T15:52:36.413Z,20.40
2022-08-31T15:54:21.653Z,20.40
2022-08-31T15:55:54.470Z,20.40
2022-08-31T15:57:28.000Z,20.40
2022-08-31T15:59:02.254Z,20.40
2022-08-31T16:00:36.615Z,20.40
2022-08-31T16:02:13.259Z,20.30
2022-08-31T16:03:57.035Z,20.30
2022-08-31T16:05:39.145Z,20.30
2022-08-31T16:07:12.362Z,20.30
2022-08-31T16:08:44.828Z,20.30
2022-08-31T16:10:20.165Z,20.20
2022-08-31T16:11:53.380Z,20.20
2022-08-31T16:13:25.776Z,20.20
2022-08-31T16:14:58.100Z,20.20
2022-08-31T16:16:35.390Z,20.10
2022-08-31T16:18:08.043Z,20.10
2022-08-31T16:19:41.216Z,20.00
2022-08-31T16:21:14.176Z,20.00
2022-08-31T16:22:46.520Z,20.00
2022-08-31T16:24:23.721Z,20.00
2022-08-31T16:25:57.307Z,20.00
2022-08-31T16:27:29.521Z,20.00
2022-08-31T16:29:04.085Z,19.90
2022-08-31T16:30:36.402Z,19.90
2022-08-31T16:32:09.529Z,19.80
2022-08-31T16:33:43.567Z,19.70
2022-08-31T16:35:15.891Z,19.70
2022-08-31T16:36:50.014Z,19.60
2022-08-31T16:38:22.619Z,19.40
2022-08-31T16:39:54.891Z,19.40
2022-08-31T16:41:30.561Z,19.30
2022-08-31T16:43:04.428Z,19.30
2022-08-31T16:44:38.532Z,19.30
2022-08-31T16:46:37.300Z,19.30
2022-08-31T16:48:24.151Z,19.30
2022-08-31T16:49:58.968Z,19.30
2022-08-31T16:51:32.696Z,19.20
2022-08-31T16:53:04.971Z,19.20
2022-08-31T16:54:45.260Z,19.10
2022-08-31T16:56:21.458Z,19.10
2022-08-31T16:57:53.661Z,19.00
2022-08-31T16:59:28.887Z,19.00
2022-08-31T17:01:13.283Z,18.90
2022-08-31T17:02:46.685Z,18.90
2022-08-31T17:04:48.207Z,18.80
2022-08-31T17:06:15.436Z,18.80
2022-08-31T17:07:47.953Z,18.80
2022-08-31T17:09:23.788Z,18.80
2022-08-31T17:10:56.383Z,18.70
2022-08-31T17:12:28.596Z,18.70
2022-08-31T17:14:06.182Z,18.60
2022-08-31T17:15:38.675Z,18.50
2022-08-31T17:17:20.196Z,18.50
2022-08-31T17:18:54.841Z,18.40
2022-08-31T17:20:28.524Z,18.30
2022-08-31T17:22:05.080Z,18.30
2022-08-31T17:23:37.691Z,18.20
2022-08-31T17:25:09.955Z,18.20
2022-08-31T17:26:43.196Z,18.10
2022-08-31T17:28:17.056Z,18.00
2022-08-31T17:29:52.127Z,18.10
2022-08-31T17:31:25.136Z,18.00
2022-08-31T17:33:01.411Z,18.00
2022-08-31T17:34:37.229Z,17.80
2022-08-31T17:36:09.884Z,17.80
2022-08-31T17:37:42.164Z,17.70
2022-08-31T17:39:17.720Z,17.70
2022-08-31T17:40:50.307Z,17.70
2022-08-31T17:42:29.285Z,17.60
2022-08-31T17:44:02.987Z,17.60
2022-08-31T17:45:36.884Z,17.60
2022-08-31T17:47:09.458Z,17.50
2022-08-31T17:48:45.214Z,17.50
2022-08-31T17:50:21.293Z,17.40
2022-08-31T17:51:55.925Z,17.40
2022-08-31T17:53:28.469Z,17.40
2022-08-31T17:55:01.858Z,17.30
2022-08-31T17:56:45.808Z,17.20
2022-08-31T17:58:20.731Z,17.20
2022-08-31T17:59:57.366Z,17.00
2022-08-31T18:01:35.754Z,17.00
2022-08-31T18:03:08.016Z,17.00
2022-08-31T18:04:41.724Z,17.00
2022-08-31T18:06:18.117Z,17.00
2022-08-31T18:07:50.939Z,16.90
2022-08-31T18:09:28.702Z,16.90
2022-08-31T18:11:01.548Z,16.90
2022-08-31T18:12:40.849Z,16.80
2022-08-31T18:14:18.355Z,16.80
2022-08-31T18:15:51.048Z,16.80
2022-08-31T18:17:23.781Z,16.80
2022-08-31T18:18:55.920Z,16.80
2022-08-31T18:20:28.672Z,16.70
2022-08-31T18:22:01.686Z,16.70
2022-08-31T18:23:34.553Z,16.60
2022-08-31T18:25:07.294Z,16.60
2022-08-31T18:26:44.451Z,16.60
2022-08-31T18:28:17.854Z,16.60
2022-08-31T18:29:50.321Z,16.50
2022-08-31T18:31:31.023Z,16.60
2022-08-31T18:33:04.040Z,16.50
2022-08-31T18:34:40.196Z,16.50
2022-08-31T18:36:12.728Z,16.40
2022-08-31T18:37:44.980Z,16.40
2022-08-31T18:39:48.107Z,16.40
2022-08-31T18:41:37.912Z,16.40
2022-08-31T18:43:29.039Z,16.40
2022-08-31T18:45:18.620Z,16.40
2022-08-31T18:46:51.896Z,16.40
2022-08-31T18:48:27.355Z,16.30
2022-08-31T18:49:59.628Z,16.30
2022-08-31T18:51:43.054Z,16.30
2022-08-31T18:53:28.446Z,16.30
2022-08-31T18:55:01.836Z,16.30
2022-08-31T18:56:33.979Z,16.30
2022-08-31T18:58:06.972Z,16.30
2022-08-31T18:59:39.567Z,16.20
2022-08-31T19:01:14.248Z,16.20
2022-08-31T19:02:46.667Z,16.20
2022-08-31T19:04:21.865Z,16.20
2022-08-31T19:05:56.660Z,16.20
2022-08-31T19:07:29.097Z,16.20
2022-08-31T19:09:02.167Z,16.10
2022-08-31T19:10:35.100Z,16.20
2022-08-31T19:12:08.099Z,16.10
2022-08-31T19:13:41.107Z,16.10
2022-08-31T19:15:13.819Z,16.10
2022-08-31T19:16:46.806Z,16.10
2022-08-31T19:18:26.361Z,16.10
2022-08-31T19:19:58.775Z,16.10
2022-08-31T19:21:34.768Z,16.10
2022-08-31T19:23:08.129Z,16.10
2022-08-31T19:24:41.171Z,16.10
2022-08-31T19:26:28.064Z,16.10
2022-08-31T19:28:07.775Z,16.10
2022-08-31T19:29:41.179Z,16.10
2022-08-31T19:31:13.691Z,16.10
2022-08-31T19:32:46.233Z,16.10
2022-08-31T19:34:25.652Z,16.00
2022-08-31T19:36:04.509Z,16.10
2022-08-31T19:37:39.135Z,16.10
2022-08-31T19:39:20.309Z,16.10
2022-08-31T19:40:52.558Z,16.10
2022-08-31T19:42:40.313Z,16.10
2022-08-31T19:44:13.992Z,16.10
2022-08-31T19:45:46.240Z,16.10
2022-08-31T19:47:25.732Z,16.00
2022-08-31T19:48:59.787Z,16.10
2022-08-31T19:50:41.614Z,16.10
2022-08-31T19:52:14.105Z,16.10
2022-08-31T19:53:49.775Z,16.10
2022-08-31T19:55:22.084Z,16.10
2022-08-31T19:56:54.912Z,16.00
2022-08-31T19:58:27.128Z,16.00
2022-08-31T19:59:59.324Z,16.00
2022-08-31T20:01:34.964Z,16.00
2022-08-31T20:03:07.484Z,16.00
2022-08-31T20:04:40.247Z,16.00
2022-08-31T20:06:16.772Z,16.00
2022-08-31T20:07:48.964Z,15.90
2022-08-31T20:09:24.132Z,15.90
2022-08-31T20:10:56.304Z,15.80
2022-08-31T20:12:29.604Z,15.80
2022-08-31T20:14:05.067Z,15.70
2022-08-31T20:15:43.764Z,15.80
2022-08-31T20:17:16.112Z,15.80
2022-08-31T20:18:51.757Z,15.80
2022-08-31T20:20:28.881Z,15.70
2022-08-31T20:22:07.757Z,15.70
2022-08-31T20:23:40.379Z,15.60
2022-08-31T20:25:18.937Z,15.50
2022-08-31T20:26:53.438Z,15.60
2022-08-31T20:28:26.842Z,15.60
2022-08-31T20:29:59.166Z,15.60
2022-08-31T20:31:31.335Z,15.60
2022-08-31T20:33:04.418Z,15.50
2022-08-31T20:34:38.528Z,15.50
2022-08-31T20:36:26.456Z,15.40
2022-08-31T20:37:58.849Z,15.40
2022-08-31T20:39:32.884Z,15.50
2022-08-31T20:41:05.606Z,15.40
2022-08-31T20:42:37.742Z,15.40
2022-08-31T20:44:33.639Z,15.30
2022-08-31T20:46:08.742Z,15.30
2022-08-31T20:47:59.559Z,15.30
2022-08-31T20:49:39.073Z,15.30
2022-08-31T20:51:16.352Z,15.30
2022-08-31T20:52:48.808Z,15.20
2022-08-31T20:54:23.180Z,15.20
2022-08-31T20:55:55.387Z,15.30
2022-08-31T20:57:32.087Z,15.20
2022-08-31T20:59:08.625Z,15.20
2022-08-31T21:00:47.556Z,15.20
2022-08-31T21:02:22.550Z,15.20
2022-08-31T21:03:56.972Z,15.10
2022-08-31T21:05:40.109Z,15.10
2022-08-31T21:07:15.526Z,15.00
2022-08-31T21:08:47.927Z,15.00
2022-08-31T21:10:35.658Z,15.00
2022-08-31T21:12:14.808Z,15.00
2022-08-31T21:13:53.003Z,15.00